createdAt,value
2018-04-16T00:00:29.973Z,11.90
2018-04-16T00:01:31.790Z,10.70
2018-04-16T00:02:32.858Z,10.10
2018-04-16T00:03:34.666Z,14.48
2018-04-16T00:04:35.742Z,12.32
2018-04-16T00:05:36.835Z,12.23
2018-04-16T00:06:37.925Z,15.07
2018-04-16T00:07:39.030Z,13.15
2018-04-16T00:08:40.107Z,13.13
2018-04-16T00:09:41.209Z,12.35
2018-04-16T00:10:42.314Z,15.18
2018-04-16T00:11:43.387Z,14.15
2018-04-16T00:12:44.450Z,12.88
2018-04-16T00:13:45.519Z,15.30
2018-04-16T00:14:46.588Z,11.60
2018-04-16T00:15:47.679Z,14.95
2018-04-16T00:16:48.756Z,11.45
2018-04-16T00:17:49.879Z,12.45
2018-04-16T00:18:50.978Z,10.68
2018-04-16T00:19:52.068Z,13.38
2018-04-16T00:20:53.165Z,11.60
2018-04-16T00:21:54.982Z,11.88
2018-04-16T00:22:56.068Z,11.27
2018-04-16T00:23:57.161Z,11.07
2018-04-16T00:24:58.227Z,10.25
2018-04-16T00:26:00.065Z,15.38
2018-04-16T00:27:01.888Z,14.45
2018-04-16T00:28:02.982Z,10.77
2018-04-16T00:29:04.035Z,10.05
2018-04-16T00:30:05.127Z,11.27
2018-04-16T00:31:06.210Z,11.98
2018-04-16T00:32:13.377Z,11.73
2018-04-16T00:33:20.664Z,11.90
2018-04-16T00:34:27.715Z,10.63
2018-04-16T00:35:35.016Z,14.57
2018-04-16T00:36:42.168Z,13.48
2018-04-16T00:37:49.653Z,12.77
2018-04-16T00:38:56.752Z,10.05
2018-04-16T00:40:04.051Z,11.82
2018-04-16T00:41:11.088Z,14.68
2018-04-16T00:42:18.442Z,11.60
2018-04-16T00:43:25.542Z,13.25
2018-04-16T00:44:32.745Z,14.13
2018-04-16T00:45:40.755Z,11.27
2018-04-16T00:46:47.790Z,12.32
2018-04-16T00:47:54.799Z,9.65
2018-04-16T00:49:01.878Z,11.15
2018-04-16T00:50:08.975Z,10.63
2018-04-16T00:51:16.284Z,8.80
2018-04-16T00:52:23.363Z,13.30
2018-04-16T00:53:42.939Z,11.05
2018-04-16T00:54:50.746Z,11.82
2018-04-16T00:55:57.890Z,15.20
2018-04-16T00:57:05.720Z,10.52
2018-04-16T00:58:12.991Z,10.55
2018-04-16T00:59:20.098Z,11.48
2018-04-16T01:00:27.219Z,12.75
2018-04-16T01:03:07.632Z,15.57
2018-04-16T01:04:14.775Z,14.23
2018-04-16T01:05:21.857Z,14.00
2018-04-16T01:06:28.946Z,14.05
2018-04-16T01:07:35.989Z,15.45
2018-04-16T01:08:42.993Z,11.77
2018-04-16T01:09:50.004Z,14.02
2018-04-16T01:10:57.911Z,11.02
2018-04-16T01:12:05.739Z,11.90
2018-04-16T01:13:13.805Z,12.20
2018-04-16T01:14:20.955Z,15.70
2018-04-16T01:15:28.792Z,16.20
2018-04-16T01:16:35.818Z,14.52
2018-04-16T01:17:43.630Z,13.62
2018-04-16T01:18:50.750Z,11.07
2018-04-16T01:20:11.668Z,13.23
2018-04-16T01:21:18.866Z,13.05
2018-04-16T01:22:25.978Z,13.23
2018-04-16T01:23:33.068Z,12.80
2018-04-16T01:24:40.130Z,10.23
2018-04-16T01:25:47.327Z,13.77
2018-04-16T01:26:54.519Z,11.18
2018-04-16T01:28:01.898Z,12.85
2018-04-16T01:29:08.943Z,15.55
2018-04-16T01:30:16.019Z,16.73
2018-04-16T01:31:23.295Z,14.23
2018-04-16T01:32:30.483Z,14.35
2018-04-16T01:33:37.683Z,13.73
2018-04-16T01:34:44.733Z,11.75
2018-04-16T01:35:51.861Z,13.20
2018-04-16T01:36:59.144Z,14.05
2018-04-16T01:38:06.244Z,10.07
2018-04-16T01:39:13.439Z,13.52
2018-04-16T01:40:20.447Z,13.02
2018-04-16T01:41:27.752Z,10.68
2018-04-16T01:42:34.828Z,14.35
2018-04-16T01:43:42.111Z,11.73
2018-04-16T01:44:49.191Z,13.68
2018-04-16T01:45:56.290Z,13.45
2018-04-16T01:47:03.428Z,12.77
2018-04-16T01:48:10.824Z,12.02
2018-04-16T01:49:18.027Z,15.25
2018-04-16T01:50:25.096Z,14.77
2018-04-16T01:51:32.158Z,12.30
2018-04-16T01:52:39.235Z,16.48
2018-04-16T01:53:46.293Z,15.20
2018-04-16T01:54:53.563Z,14.43
2018-04-16T01:56:00.623Z,17.90
2018-04-16T01:57:07.713Z,13.93
2018-04-16T01:58:14.956Z,15.88
2018-04-16T01:59:21.987Z,17.25
2018-04-16T02:00:29.014Z,12.80
2018-04-16T02:01:36.184Z,13.20
2018-04-16T02:02:43.323Z,14.23
2018-04-16T02:03:50.634Z,11.05
2018-04-16T02:04:57.794Z,10.48
2018-04-16T02:06:05.803Z,12.50
2018-04-16T02:07:13.644Z,10.27
2018-04-16T02:08:20.684Z,9.93
2018-04-16T02:09:27.719Z,10.90
2018-04-16T02:10:35.772Z,10.00
2018-04-16T02:11:42.875Z,14.02
2018-04-16T02:12:50.697Z,11.12
2018-04-16T02:13:57.773Z,10.85
2018-04-16T02:15:05.018Z,10.05
2018-04-16T02:16:13.020Z,13.23
2018-04-16T02:17:20.100Z,9.57
2018-04-16T02:18:27.375Z,11.35
2018-04-16T02:19:34.667Z,10.73
2018-04-16T02:20:41.750Z,9.98
2018-04-16T02:21:48.991Z,12.30
2018-04-16T02:22:56.331Z,12.00
2018-04-16T02:24:03.339Z,9.15
2018-04-16T02:25:11.434Z,10.77
2018-04-16T02:26:18.695Z,9.85
2018-04-16T02:27:25.686Z,11.12
2018-04-16T02:28:33.539Z,14.23
2018-04-16T02:29:40.565Z,11.12
2018-04-16T02:30:47.633Z,9.60
2018-04-16T02:31:54.720Z,12.23
2018-04-16T02:33:01.900Z,13.07
2018-04-16T02:34:08.957Z,12.45
2018-04-16T02:36:49.611Z,12.55
2018-04-16T02:37:56.886Z,12.55
2018-04-16T02:39:04.206Z,13.00
2018-04-16T02:40:12.132Z,13.30
2018-04-16T02:41:19.362Z,12.98
2018-04-16T02:42:27.247Z,14.07
2018-04-16T02:43:34.308Z,13.10
2018-04-16T02:44:41.356Z,11.90
2018-04-16T02:45:48.431Z,13.00
2018-04-16T02:46:55.579Z,13.35
2018-04-16T02:48:02.875Z,8.63
2018-04-16T02:49:10.189Z,13.48
2018-04-16T02:50:17.457Z,13.90
2018-04-16T02:51:24.522Z,12.32
2018-04-16T02:52:31.671Z,12.77
2018-04-16T02:53:38.801Z,13.57
2018-04-16T02:54:46.154Z,11.88
2018-04-16T02:55:53.432Z,10.13
2018-04-16T02:57:00.728Z,14.18
2018-04-16T02:58:07.766Z,14.10
2018-04-16T02:59:15.764Z,15.50
2018-04-16T03:00:23.612Z,13.65
2018-04-16T03:01:30.718Z,12.02
2018-04-16T03:02:38.519Z,12.48
2018-04-16T03:03:45.816Z,11.38
2018-04-16T03:04:53.130Z,9.85
2018-04-16T03:06:00.204Z,14.02
2018-04-16T03:07:07.276Z,13.18
2018-04-16T03:08:14.353Z,12.70
2018-04-16T03:09:21.476Z,13.30
2018-04-16T03:10:29.464Z,13.80
2018-04-16T03:11:37.287Z,13.25
2018-04-16T03:12:44.511Z,21.55
2018-04-16T03:13:51.583Z,13.15
2018-04-16T03:14:58.618Z,10.27
2018-04-16T03:16:05.680Z,10.77
2018-04-16T03:17:12.754Z,10.80
2018-04-16T03:18:19.987Z,14.85
2018-04-16T03:19:27.278Z,12.30
2018-04-16T03:20:35.109Z,11.02
2018-04-16T03:21:42.434Z,12.73
2018-04-16T03:22:49.499Z,12.18
2018-04-16T03:23:56.664Z,11.35
2018-04-16T03:25:03.987Z,13.23
2018-04-16T03:26:11.246Z,15.43
2018-04-16T03:27:18.595Z,11.20
2018-04-16T03:28:25.687Z,14.02
2018-04-16T03:29:32.748Z,14.20
2018-04-16T03:30:39.883Z,8.85
2018-04-16T03:31:46.935Z,25.12
2018-04-16T03:32:54.095Z,12.82
2018-04-16T03:34:01.104Z,12.50
2018-04-16T03:35:08.227Z,14.02
2018-04-16T03:36:15.532Z,17.50
2018-04-16T03:37:22.595Z,13.80
2018-04-16T03:38:29.690Z,16.98
2018-04-16T03:39:36.759Z,13.98
2018-04-16T03:40:43.896Z,17.30
2018-04-16T03:41:50.982Z,17.37
2018-04-16T03:42:58.827Z,14.90
2018-04-16T03:44:05.891Z,14.45
2018-04-16T03:45:13.121Z,12.27
2018-04-16T03:46:20.231Z,14.30
2018-04-16T03:47:27.270Z,11.23
2018-04-16T03:48:35.027Z,13.43
2018-04-16T03:49:42.031Z,12.90
2018-04-16T03:50:49.306Z,14.23
2018-04-16T03:51:50.413Z,8.80
2018-04-16T03:52:57.686Z,13.60
2018-04-16T03:53:58.783Z,13.32
2018-04-16T03:55:00.795Z,9.60
2018-04-16T03:56:01.878Z,13.02
2018-04-16T03:57:02.974Z,13.77
2018-04-16T03:58:04.795Z,12.48
2018-04-16T03:59:05.883Z,14.95
2018-04-16T04:00:06.988Z,11.35
2018-04-16T04:01:08.074Z,14.52
2018-04-16T04:02:09.159Z,12.10
2018-04-16T04:03:10.966Z,14.18
2018-04-16T04:04:12.036Z,15.57
2018-04-16T04:05:13.839Z,17.55
2018-04-16T04:06:14.909Z,9.98
2018-04-16T04:07:15.994Z,13.90
2018-04-16T04:08:17.111Z,15.07
2018-04-16T04:09:18.204Z,14.90
2018-04-16T04:10:20.028Z,12.73
2018-04-16T04:11:21.108Z,13.77
2018-04-16T04:12:22.188Z,13.52
2018-04-16T04:13:23.264Z,14.05
2018-04-16T04:14:24.367Z,11.93
2018-04-16T04:15:25.444Z,11.82
2018-04-16T04:16:27.286Z,11.60
2018-04-16T04:17:28.366Z,11.40
2018-04-16T04:18:29.447Z,11.63
2018-04-16T04:19:30.523Z,13.50
2018-04-16T04:20:31.598Z,13.27
2018-04-16T04:21:33.407Z,9.93
2018-04-16T04:22:46.732Z,13.60
2018-04-16T04:24:00.145Z,11.25
2018-04-16T04:25:13.462Z,10.77
2018-04-16T04:26:26.828Z,12.80
2018-04-16T04:27:40.214Z,14.50
2018-04-16T04:28:53.514Z,14.40
2018-04-16T04:30:06.875Z,16.50
2018-04-16T04:31:07.922Z,14.73
2018-04-16T04:32:09.761Z,13.35
2018-04-16T04:33:11.550Z,11.32
2018-04-16T04:34:12.618Z,11.90
2018-04-16T04:35:13.672Z,14.20
2018-04-16T04:36:14.746Z,12.45
2018-04-16T04:37:15.811Z,15.32
2018-04-16T04:38:16.883Z,14.02
2018-04-16T04:39:18.689Z,15.90
2018-04-16T04:40:19.901Z,15.98
2018-04-16T04:41:20.998Z,14.38
2018-04-16T04:42:22.808Z,14.77
2018-04-16T04:43:23.903Z,14.45
2018-04-16T04:44:24.955Z,15.35
2018-04-16T04:45:26.040Z,16.60
2018-04-16T04:46:27.119Z,16.65
2018-04-16T04:47:28.197Z,12.88
2018-04-16T04:48:29.271Z,16.67
2018-04-16T04:49:30.323Z,12.18
2018-04-16T04:50:31.380Z,16.40
2018-04-16T04:51:32.463Z,13.98
2018-04-16T04:52:34.327Z,16.30
2018-04-16T04:53:35.426Z,13.88
2018-04-16T04:54:36.503Z,15.55
2018-04-16T04:55:37.594Z,12.77
2018-04-16T04:56:38.654Z,16.48
2018-04-16T04:57:39.727Z,13.13
2018-04-16T04:58:40.813Z,18.52
2018-04-16T04:59:41.884Z,15.55
2018-04-16T05:00:42.970Z,16.27
2018-04-16T05:01:44.051Z,15.65
2018-04-16T05:02:45.141Z,11.38
2018-04-16T05:03:46.218Z,12.98
2018-04-16T05:04:47.301Z,16.05
2018-04-16T05:05:48.371Z,16.50
2018-04-16T05:06:49.456Z,15.32
2018-04-16T05:07:50.557Z,19.90
2018-04-16T05:08:51.669Z,14.13
2018-04-16T05:09:52.764Z,17.45
2018-04-16T05:10:53.836Z,16.00
2018-04-16T05:11:54.920Z,16.73
2018-04-16T05:12:55.984Z,15.40
2018-04-16T05:13:57.082Z,17.05
2018-04-16T05:14:58.162Z,14.27
2018-04-16T05:15:59.251Z,14.35
2018-04-16T05:17:00.335Z,17.58
2018-04-16T05:18:01.471Z,13.02
2018-04-16T05:19:02.587Z,13.95
2018-04-16T05:20:03.691Z,14.07
2018-04-16T05:21:04.768Z,15.05
2018-04-16T05:22:05.936Z,15.27
2018-04-16T05:23:08.441Z,15.55
2018-04-16T05:24:09.681Z,11.02
2018-04-16T05:26:18.605Z,14.05
2018-04-16T05:27:19.694Z,16.08
2018-04-16T05:28:20.808Z,15.60
2018-04-16T05:29:21.922Z,14.00
2018-04-16T05:30:23.018Z,14.93
2018-04-16T05:31:24.099Z,18.30
2018-04-16T05:32:25.201Z,16.62
2018-04-16T05:33:26.408Z,12.73
2018-04-16T05:34:27.550Z,17.33
2018-04-16T05:35:28.643Z,18.12
2018-04-16T05:36:29.760Z,13.20
2018-04-16T05:37:31.597Z,16.42
2018-04-16T05:38:32.695Z,15.82
2018-04-16T05:39:33.759Z,18.05
2018-04-16T05:40:34.846Z,19.30
2018-04-16T05:41:35.923Z,17.23
2018-04-16T05:42:37.089Z,21.48
2018-04-16T05:43:38.916Z,19.23
2018-04-16T05:44:40.744Z,20.02
2018-04-16T05:45:41.831Z,21.00
2018-04-16T05:46:42.932Z,16.90
2018-04-16T05:47:44.034Z,19.25
2018-04-16T05:48:45.179Z,20.58
2018-04-16T05:49:46.275Z,17.87
2018-04-16T05:50:47.426Z,20.12
2018-04-16T05:51:48.528Z,17.90
2018-04-16T05:52:50.455Z,26.85
2018-04-16T05:53:51.555Z,15.60
2018-04-16T05:54:52.659Z,20.05
2018-04-16T05:55:53.765Z,14.60
2018-04-16T05:56:55.619Z,16.00
2018-04-16T05:57:57.473Z,16.30
2018-04-16T05:58:59.290Z,18.45
2018-04-16T06:00:00.456Z,15.10
2018-04-16T06:01:01.591Z,14.57
2018-04-16T06:02:02.704Z,23.55
2018-04-16T06:03:03.794Z,17.12
2018-04-16T06:04:04.981Z,22.15
2018-04-16T06:05:06.081Z,15.65
2018-04-16T06:06:07.155Z,16.20
2018-04-16T06:07:08.226Z,19.15
2018-04-16T06:08:09.310Z,19.05
2018-04-16T06:09:11.111Z,17.12
2018-04-16T06:10:12.173Z,20.55
2018-04-16T06:11:13.309Z,13.80
2018-04-16T06:12:14.408Z,17.23
2018-04-16T06:13:15.519Z,14.70
2018-04-16T06:14:16.602Z,15.70
2018-04-16T06:15:17.685Z,17.58
2018-04-16T06:16:19.520Z,22.75
2018-04-16T06:17:21.353Z,13.77
2018-04-16T06:18:22.447Z,17.15
2018-04-16T06:19:23.528Z,17.58
2018-04-16T06:20:25.359Z,16.30
2018-04-16T06:21:26.462Z,16.42
2018-04-16T06:22:27.538Z,18.60
2018-04-16T06:23:29.354Z,16.62
2018-04-16T06:24:30.443Z,20.65
2018-04-16T06:25:31.538Z,23.90
2018-04-16T06:26:33.391Z,16.10
2018-04-16T06:27:34.447Z,15.70
2018-04-16T06:28:35.535Z,21.45
2018-04-16T06:29:36.649Z,16.27
2018-04-16T06:30:37.731Z,19.37
2018-04-16T06:31:38.855Z,16.15
2018-04-16T06:32:40.659Z,16.30
2018-04-16T06:33:41.742Z,18.08
2018-04-16T06:34:43.547Z,17.30
2018-04-16T06:35:44.644Z,21.08
2018-04-16T06:36:45.706Z,17.48
2018-04-16T06:37:46.795Z,18.00
2018-04-16T06:38:48.130Z,18.52
2018-04-16T06:39:49.965Z,20.15
2018-04-16T06:40:51.079Z,17.50
2018-04-16T06:41:52.135Z,13.55
2018-04-16T06:42:53.992Z,17.92
2018-04-16T06:43:55.122Z,15.48
2018-04-16T06:44:56.142Z,13.25
2018-04-16T06:45:57.229Z,15.75
2018-04-16T06:46:58.331Z,14.73
2018-04-16T06:47:59.407Z,14.23
2018-04-16T06:49:00.507Z,18.25
2018-04-16T06:50:01.590Z,14.25
2018-04-16T06:51:02.705Z,15.02
2018-04-16T06:52:03.815Z,13.95
2018-04-16T06:53:04.892Z,15.32
2018-04-16T06:54:05.968Z,11.73
2018-04-16T06:55:07.061Z,15.15
2018-04-16T06:56:08.351Z,13.25
2018-04-16T06:57:09.444Z,19.83
2018-04-16T06:58:11.271Z,15.30
2018-04-16T06:59:12.375Z,14.10
2018-04-16T07:00:13.471Z,15.05
2018-04-16T07:01:14.608Z,13.85
2018-04-16T07:02:16.433Z,21.50
2018-04-16T07:03:17.523Z,16.35
2018-04-16T07:04:18.599Z,16.08
2018-04-16T07:05:19.731Z,15.27
2018-04-16T07:06:21.609Z,16.10
2018-04-16T07:07:22.683Z,20.27
2018-04-16T07:08:23.778Z,13.80
2018-04-16T07:09:24.912Z,17.85
2018-04-16T07:10:26.015Z,17.35
2018-04-16T07:11:27.084Z,19.23
2018-04-16T07:12:28.231Z,18.55
2018-04-16T07:13:30.051Z,15.90
2018-04-16T07:14:31.845Z,16.83
2018-04-16T07:15:32.940Z,17.98
2018-04-16T07:16:34.057Z,19.00
2018-04-16T07:17:35.855Z,16.87
2018-04-16T07:18:37.522Z,21.37
2018-04-16T07:19:38.615Z,16.08
2018-04-16T07:20:39.735Z,19.70
2018-04-16T07:21:40.827Z,16.20
2018-04-16T07:22:41.895Z,18.90
2018-04-16T07:23:42.991Z,17.95
2018-04-16T07:24:44.063Z,21.48
2018-04-16T07:25:45.142Z,17.70
2018-04-16T07:26:46.234Z,20.00
2018-04-16T07:27:47.303Z,17.55
2018-04-16T07:28:48.363Z,18.50
2018-04-16T07:29:50.227Z,21.20
2018-04-16T07:30:51.371Z,18.80
2018-04-16T07:31:52.459Z,19.65
2018-04-16T07:32:53.540Z,19.10
2018-04-16T07:33:54.620Z,16.60
2018-04-16T07:34:55.780Z,19.87
2018-04-16T07:35:57.622Z,16.75
2018-04-16T07:36:58.722Z,17.85
2018-04-16T07:37:59.819Z,18.17
2018-04-16T07:39:00.928Z,15.88
2018-04-16T07:40:02.022Z,19.55
2018-04-16T07:41:03.098Z,16.73
2018-04-16T07:42:04.945Z,19.58
2018-04-16T07:43:06.028Z,16.48
2018-04-16T07:44:07.099Z,20.00
2018-04-16T07:45:08.194Z,18.30
2018-04-16T07:46:09.287Z,20.73
2018-04-16T07:47:11.108Z,14.87
2018-04-16T07:48:12.212Z,12.80
2018-04-16T07:49:13.296Z,17.65
2018-04-16T07:50:14.394Z,14.25
2018-04-16T07:51:15.483Z,15.23
2018-04-16T07:52:16.565Z,19.27
2018-04-16T07:53:17.643Z,14.40
2018-04-16T07:54:18.736Z,17.65
2018-04-16T07:55:19.836Z,14.55
2018-04-16T07:56:20.940Z,17.65
2018-04-16T07:57:22.016Z,15.30
2018-04-16T07:58:23.102Z,17.25
2018-04-16T07:59:24.183Z,11.98
2018-04-16T08:00:25.260Z,14.87
2018-04-16T08:01:26.412Z,14.75
2018-04-16T08:02:27.517Z,16.75
2018-04-16T08:03:29.319Z,16.08
2018-04-16T08:04:30.367Z,15.38
2018-04-16T08:05:31.441Z,12.35
2018-04-16T08:06:32.642Z,19.40
2018-04-16T08:07:33.740Z,15.18
2018-04-16T08:08:34.814Z,16.02
2018-04-16T08:09:35.915Z,14.05
2018-04-16T08:10:36.999Z,14.95
2018-04-16T08:11:39.044Z,15.00
2018-04-16T08:12:40.195Z,14.18
2018-04-16T08:13:42.036Z,16.08
2018-04-16T08:14:43.165Z,16.52
2018-04-16T08:15:44.959Z,17.20
2018-04-16T08:16:46.088Z,20.52
2018-04-16T08:17:47.134Z,16.75
2018-04-16T08:18:48.209Z,17.62
2018-04-16T08:19:50.051Z,16.20
2018-04-16T08:20:51.128Z,18.50
2018-04-16T08:21:52.215Z,18.95
2018-04-16T08:22:53.316Z,19.77
2018-04-16T08:23:54.395Z,19.87
2018-04-16T08:24:56.230Z,22.67
2018-04-16T08:25:57.327Z,20.70
2018-04-16T08:26:58.484Z,15.60
2018-04-16T08:27:59.536Z,18.20
2018-04-16T08:29:01.379Z,16.60
2018-04-16T08:30:03.226Z,15.32
2018-04-16T08:31:04.311Z,16.83
2018-04-16T08:32:05.387Z,13.25
2018-04-16T08:33:06.499Z,14.20
2018-04-16T08:34:07.585Z,17.83
2018-04-16T08:35:09.415Z,18.12
2018-04-16T08:36:10.553Z,13.27
2018-04-16T08:37:12.388Z,15.55
2018-04-16T08:38:13.467Z,16.15
2018-04-16T08:39:14.556Z,14.63
2018-04-16T08:40:16.398Z,13.85
2018-04-16T08:41:17.473Z,15.73
2018-04-16T08:42:18.535Z,13.75
2018-04-16T08:43:19.596Z,12.93
2018-04-16T08:44:20.703Z,14.27
2018-04-16T08:45:21.820Z,15.85
2018-04-16T08:46:22.932Z,12.30
2018-04-16T08:47:24.027Z,14.15
2018-04-16T08:48:25.141Z,15.05
2018-04-16T08:49:26.204Z,16.45
2018-04-16T08:50:27.271Z,14.63
2018-04-16T08:51:28.383Z,12.68
2018-04-16T08:52:30.246Z,15.38
2018-04-16T08:53:31.294Z,11.35
2018-04-16T08:54:32.352Z,14.77
2018-04-16T08:55:33.419Z,14.05
2018-04-16T08:56:34.556Z,11.80
2018-04-16T08:57:35.626Z,12.85
2018-04-16T08:58:36.712Z,15.10
2018-04-16T08:59:37.836Z,12.60
2018-04-16T09:00:38.902Z,9.90
2018-04-16T09:01:39.935Z,10.23
2018-04-16T09:02:41.015Z,14.18
2018-04-16T09:03:42.115Z,12.52
2018-04-16T09:04:43.211Z,9.85
2018-04-16T09:05:45.016Z,15.48
2018-04-16T09:06:46.099Z,9.77
2018-04-16T09:07:47.926Z,10.70
2018-04-16T09:08:49.003Z,12.82
2018-04-16T09:09:50.074Z,9.88
2018-04-16T09:10:51.147Z,11.27
2018-04-16T09:11:52.943Z,10.38
2018-04-16T09:12:54.057Z,12.32
2018-04-16T09:13:55.132Z,9.30
2018-04-16T09:14:56.210Z,10.75
2018-04-16T09:15:57.287Z,12.70
2018-04-16T09:16:58.390Z,12.00
2018-04-16T09:17:59.485Z,18.05
2018-04-16T09:19:00.546Z,16.62
2018-04-16T09:20:01.624Z,15.00
2018-04-16T09:21:02.724Z,16.20
2018-04-16T09:22:03.794Z,14.80
2018-04-16T09:23:04.877Z,10.02
2018-04-16T09:24:05.922Z,10.93
2018-04-16T09:25:07.007Z,11.90
2018-04-16T09:26:08.884Z,11.48
2018-04-16T09:27:09.962Z,12.43
2018-04-16T09:28:11.057Z,12.00
2018-04-16T09:29:12.125Z,12.43
2018-04-16T09:30:13.222Z,10.77
2018-04-16T09:31:14.303Z,9.70
2018-04-16T09:32:15.348Z,11.90
2018-04-16T09:33:16.490Z,11.45
2018-04-16T09:34:18.285Z,11.15
2018-04-16T09:35:19.358Z,12.37
2018-04-16T09:36:20.427Z,12.10
2018-04-16T09:37:21.512Z,9.70
2018-04-16T09:38:22.607Z,8.95
2018-04-16T09:39:23.707Z,8.73
2018-04-16T09:40:24.771Z,11.12
2018-04-16T09:41:25.882Z,12.88
2018-04-16T09:42:26.947Z,9.18
2018-04-16T09:43:28.046Z,14.02
2018-04-16T09:44:29.836Z,9.73
2018-04-16T09:45:30.899Z,11.38
2018-04-16T09:46:31.962Z,13.25
2018-04-16T09:47:33.131Z,10.75
2018-04-16T09:49:42.048Z,11.77
2018-04-16T09:50:43.135Z,11.40
2018-04-16T09:51:44.197Z,11.65
2018-04-16T09:52:45.300Z,12.30
2018-04-16T09:53:46.395Z,10.85
2018-04-16T09:54:47.506Z,11.02
2018-04-16T09:55:48.575Z,10.48
2018-04-16T09:56:49.708Z,13.52
2018-04-16T09:57:50.807Z,9.88
2018-04-16T09:58:51.879Z,12.45
2018-04-16T09:59:52.971Z,10.43
2018-04-16T10:00:54.106Z,12.10
2018-04-16T10:01:55.886Z,10.77
2018-04-16T10:02:56.984Z,10.40
2018-04-16T10:03:58.101Z,10.85
2018-04-16T10:04:59.196Z,13.70
2018-04-16T10:06:01.045Z,9.90
2018-04-16T10:07:02.127Z,16.83
2018-04-16T10:08:03.195Z,11.32
2018-04-16T10:09:05.130Z,12.20
2018-04-16T10:10:06.203Z,10.90
2018-04-16T10:11:08.019Z,11.45
2018-04-16T10:12:09.091Z,10.20
2018-04-16T10:13:10.195Z,9.73
2018-04-16T10:14:11.252Z,9.63
2018-04-16T10:15:13.062Z,10.38
2018-04-16T10:16:14.132Z,10.82
2018-04-16T10:17:15.937Z,8.30
2018-04-16T10:18:16.999Z,8.73
2018-04-16T10:19:18.863Z,8.35
2018-04-16T10:20:20.699Z,8.85
2018-04-16T10:21:21.795Z,11.43
2018-04-16T10:22:22.876Z,10.85
2018-04-16T10:23:23.952Z,10.00
2018-04-16T10:24:25.006Z,9.55
2018-04-16T10:25:26.119Z,8.65
2018-04-16T10:26:27.214Z,8.15
2018-04-16T10:27:29.000Z,13.27
2018-04-16T10:28:30.086Z,14.30
2018-04-16T10:29:31.948Z,10.80
2018-04-16T10:30:33.061Z,11.02
2018-04-16T10:31:34.894Z,10.07
2018-04-16T10:32:35.978Z,8.60
2018-04-16T10:33:37.057Z,10.70
2018-04-16T10:34:38.131Z,10.50
2018-04-16T10:35:39.208Z,10.82
2018-04-16T10:36:40.304Z,13.75
2018-04-16T10:37:41.384Z,11.90
2018-04-16T10:38:42.518Z,9.55
2018-04-16T10:39:43.659Z,10.35
2018-04-16T10:40:45.911Z,9.90
2018-04-16T10:41:47.993Z,9.52
2018-04-16T10:42:49.077Z,10.60
2018-04-16T10:43:50.158Z,9.75
2018-04-16T10:44:51.999Z,7.95
2018-04-16T10:45:53.815Z,11.82
2018-04-16T10:46:54.889Z,8.00
2018-04-16T10:47:55.987Z,10.20
2018-04-16T10:48:57.085Z,10.95
2018-04-16T10:49:58.168Z,11.63
2018-04-16T10:50:59.230Z,10.98
2018-04-16T10:52:00.307Z,10.40
2018-04-16T10:53:01.362Z,12.35
2018-04-16T10:54:02.467Z,11.77
2018-04-16T10:55:03.562Z,11.85
2018-04-16T10:56:04.639Z,11.00
2018-04-16T10:57:05.719Z,8.73
2018-04-16T10:58:06.787Z,10.13
2018-04-16T10:59:07.864Z,11.38
2018-04-16T11:00:08.934Z,10.32
2018-04-16T11:01:09.988Z,9.82
2018-04-16T11:02:11.069Z,10.02
2018-04-16T11:03:12.139Z,10.85
2018-04-16T11:04:13.245Z,9.57
2018-04-16T11:05:14.352Z,10.80
2018-04-16T11:06:15.470Z,11.15
2018-04-16T11:07:16.514Z,9.57
2018-04-16T11:08:17.571Z,12.77
2018-04-16T11:09:18.655Z,9.63
2018-04-16T11:10:19.762Z,8.48
2018-04-16T11:11:20.808Z,9.48
2018-04-16T11:12:21.898Z,10.30
2018-04-16T11:13:22.967Z,11.77
2018-04-16T11:14:24.039Z,13.32
2018-04-16T11:15:25.107Z,9.02
2018-04-16T11:16:26.216Z,11.55
2018-04-16T11:17:27.281Z,9.77
2018-04-16T11:18:28.386Z,11.20
2018-04-16T11:19:29.455Z,11.20
2018-04-16T11:20:30.531Z,9.07
2018-04-16T11:21:31.618Z,10.23
2018-04-16T11:22:32.683Z,8.80
2018-04-16T11:23:33.776Z,11.35
2018-04-16T11:24:34.826Z,10.00
2018-04-16T11:25:35.914Z,11.70
2018-04-16T11:26:36.991Z,8.68
2018-04-16T11:27:38.074Z,12.18
2018-04-16T11:28:39.914Z,9.95
2018-04-16T11:29:41.758Z,11.60
2018-04-16T11:30:42.904Z,10.32
2018-04-16T11:31:44.723Z,10.32
2018-04-16T11:32:45.827Z,6.68
2018-04-16T11:33:46.895Z,12.52
2018-04-16T11:34:47.990Z,9.10
2018-04-16T11:35:49.081Z,10.93
2018-04-16T11:36:50.907Z,8.15
2018-04-16T11:37:51.997Z,9.55
2018-04-16T11:38:53.091Z,11.52
2018-04-16T11:39:54.166Z,11.57
2018-04-16T11:40:55.266Z,10.68
2018-04-16T11:41:57.079Z,8.82
2018-04-16T11:42:58.148Z,9.63
2018-04-16T11:43:59.961Z,10.25
2018-04-16T11:45:01.086Z,12.30
2018-04-16T11:46:02.194Z,11.68
2018-04-16T11:47:03.278Z,8.90
2018-04-16T11:48:04.362Z,11.73
2018-04-16T11:49:05.427Z,10.02
2018-04-16T11:50:06.503Z,11.82
2018-04-16T11:51:08.379Z,9.25
2018-04-16T11:52:09.438Z,8.80
2018-04-16T11:53:10.537Z,9.77
2018-04-16T11:54:11.638Z,8.77
2018-04-16T11:55:12.730Z,15.07
2018-04-16T11:56:13.930Z,10.38
2018-04-16T11:57:15.012Z,9.57
2018-04-16T11:58:16.093Z,11.98
2018-04-16T11:59:17.156Z,8.02
2018-04-16T12:00:18.248Z,10.73
2018-04-16T12:01:20.053Z,7.95
2018-04-16T12:02:21.132Z,9.77
2018-04-16T12:03:22.211Z,9.55
2018-04-16T12:04:23.353Z,8.13
2018-04-16T12:05:24.379Z,11.70
2018-04-16T12:06:25.464Z,8.32
2018-04-16T12:07:28.535Z,11.35
2018-04-16T12:08:30.463Z,10.70
2018-04-16T12:09:32.300Z,10.60
2018-04-16T12:10:33.375Z,10.35
2018-04-16T12:11:34.455Z,7.93
2018-04-16T12:12:35.540Z,11.43
2018-04-16T12:13:36.626Z,7.37
2018-04-16T12:14:37.739Z,10.43
2018-04-16T12:15:38.826Z,10.98
2018-04-16T12:16:40.718Z,10.05
2018-04-16T12:17:42.483Z,8.93
2018-04-16T12:18:43.596Z,8.88
2018-04-16T12:19:44.737Z,13.85
2018-04-16T12:20:45.735Z,7.30
2018-04-16T12:21:46.824Z,9.77
2018-04-16T12:22:47.911Z,8.25
2018-04-16T12:23:48.982Z,10.38
2018-04-16T12:24:50.061Z,10.80
2018-04-16T12:25:51.135Z,9.43
2018-04-16T12:26:52.194Z,9.90
2018-04-16T12:27:53.309Z,10.02
2018-04-16T12:28:54.378Z,8.65
2018-04-16T12:29:56.202Z,9.55
2018-04-16T12:30:57.272Z,9.85
2018-04-16T12:31:58.347Z,7.80
2018-04-16T12:32:59.468Z,9.55
2018-04-16T12:34:00.551Z,10.45
2018-04-16T12:35:02.400Z,9.05
2018-04-16T12:36:03.536Z,9.30
2018-04-16T12:37:05.391Z,10.80
2018-04-16T12:38:06.480Z,10.43
2018-04-16T12:39:07.591Z,9.57
2018-04-16T12:40:09.414Z,11.75
2018-04-16T12:41:10.481Z,10.52
2018-04-16T12:42:11.575Z,15.45
2018-04-16T12:43:13.408Z,9.60
2018-04-16T12:44:14.495Z,9.65
2018-04-16T12:45:15.591Z,10.60
2018-04-16T12:46:16.668Z,12.13
2018-04-16T12:47:17.786Z,14.02
2018-04-16T12:48:18.883Z,10.00
2018-04-16T12:49:20.695Z,11.18
2018-04-16T12:50:21.771Z,14.05
2018-04-16T12:51:22.865Z,10.38
2018-04-16T12:52:23.976Z,10.85
2018-04-16T12:53:25.052Z,10.88
2018-04-16T12:54:26.135Z,12.20
2018-04-16T12:55:27.219Z,10.10
2018-04-16T12:56:29.037Z,12.60
2018-04-16T12:57:30.162Z,8.80
2018-04-16T12:58:31.250Z,13.10
2018-04-16T12:59:32.315Z,10.93
2018-04-16T13:00:33.388Z,12.65
2018-04-16T13:01:34.465Z,13.00
2018-04-16T13:02:35.547Z,14.95
2018-04-16T13:03:36.704Z,14.25
2018-04-16T13:04:38.563Z,15.43
2018-04-16T13:05:39.721Z,14.13
2018-04-16T13:06:40.813Z,15.05
2018-04-16T13:07:41.887Z,14.20
2018-04-16T13:08:42.976Z,15.50
2018-04-16T13:09:44.823Z,15.20
2018-04-16T13:10:45.907Z,14.50
2018-04-16T13:11:46.976Z,11.05
2018-04-16T13:12:48.043Z,9.23
2018-04-16T13:13:49.871Z,10.73
2018-04-16T13:14:50.950Z,9.95
2018-04-16T13:15:52.051Z,10.68
2018-04-16T13:16:53.842Z,7.75
2018-04-16T13:17:54.982Z,8.80
2018-04-16T13:18:56.038Z,9.95
2018-04-16T13:19:57.113Z,7.85
2018-04-16T13:20:58.171Z,9.10
2018-04-16T13:21:59.239Z,8.40
2018-04-16T13:23:00.299Z,10.80
2018-04-16T13:24:01.369Z,9.90
2018-04-16T13:25:02.450Z,9.30
2018-04-16T13:26:03.559Z,8.48
2018-04-16T13:27:04.639Z,11.10
2018-04-16T13:28:05.724Z,9.73
2018-04-16T13:29:06.803Z,9.73
2018-04-16T13:30:07.906Z,9.75
2018-04-16T13:31:09.711Z,10.32
2018-04-16T13:32:10.804Z,9.35
2018-04-16T13:33:11.895Z,11.02
2018-04-16T13:34:12.956Z,11.00
2018-04-16T13:35:14.073Z,7.60
2018-04-16T13:36:15.144Z,10.73
2018-04-16T13:37:16.237Z,9.57